Time;durP1;ratioP1;P1;durP2;ratioP2;P2;SDS_P1;SDS_P2;PMS_P1;PMS_P2;Temp;Humidity;BMP_temperature;BMP_pressure;BME280_temperature;BME280_humidity;BME280_pressure;Samples;Min_cycle;Max_cycle;Signal;HPM_P1;HPM_P2
2022/12/31 00:00:15;;;;;;;5.57;5.07;;;;;;;;;;5055006;28;20943;-67
2022/12/31 00:02:43;;;;;;;5.00;4.60;;;;;;;;;;5055411;28;20485;-67
2022/12/31 00:05:12;;;;;;;4.40;4.00;;;;;;;;;;5054775;28;20538;-67
2022/12/31 00:07:39;;;;;;;4.40;4.00;;;;;;;;;;5054793;28;20948;-67
2022/12/31 00:10:07;;;;;;;4.40;4.00;;;;;;;;;;5055117;28;20482;-68
2022/12/31 00:12:34;;;;;;;4.90;4.40;;;;;;;;;;5054868;28;20516;-68
2022/12/31 00:15:01;;;;;;;4.73;4.00;;;;;;;;;;5054911;28;20434;-68
2022/12/31 00:17:28;;;;;;;5.00;4.33;;;;;;;;;;5055394;28;20469;-68
2022/12/31 00:19:56;;;;;;;6.17;4.27;;;;;;;;;;5054946;28;20448;-68
2022/12/31 00:22:24;;;;;;;4.80;4.40;;;;;;;;;;5054429;28;20486;-68
2022/12/31 00:24:52;;;;;;;4.00;3.70;;;;;;;;;;5054737;28;20534;-68
2022/12/31 00:27:21;;;;;;;4.83;4.43;;;;;;;;;;5054792;28;20443;-68
2022/12/31 00:29:48;;;;;;;5.90;5.40;;;;;;;;;;5054265;28;20458;-68
2022/12/31 00:32:15;;;;;;;5.60;5.10;;;;;;;;;;5054355;28;20445;-68
2022/12/31 00:34:42;;;;;;;6.03;5.00;;;;;;;;;;5054482;28;20455;-68
2022/12/31 00:37:10;;;;;;;5.03;4.63;;;;;;;;;;5054569;28;20442;-68
2022/12/31 00:39:38;;;;;;;5.37;4.97;;;;;;;;;;5054589;28;20455;-68
2022/12/31 00:42:06;;;;;;;6.40;4.40;;;;;;;;;;5054487;28;20508;-68
2022/12/31 00:44:33;;;;;;;4.87;4.47;;;;;;;;;;5054524;28;20457;-68
2022/12/31 00:47:00;;;;;;;4.93;4.53;;;;;;;;;;5054747;28;20445;-68
2022/12/31 00:49:27;;;;;;;6.83;5.10;;;;;;;;;;5054334;28;20441;-68
2022/12/31 00:51:54;;;;;;;4.93;4.40;;;;;;;;;;5053941;28;20450;-68
2022/12/31 00:54:22;;;;;;;5.03;4.03;;;;;;;;;;5054172;28;20443;-68
2022/12/31 00:56:50;;;;;;;4.40;4.00;;;;;;;;;;5053884;28;20458;-69
2022/12/31 00:59:17;;;;;;;3.90;3.60;;;;;;;;;;5053750;28;20444;-68
2022/12/31 01:01:44;;;;;;;3.70;3.40;;;;;;;;;;5054020;28;20474;-68
2022/12/31 01:04:13;;;;;;;4.07;3.03;;;;;;;;;;5054346;28;20445;-68
2022/12/31 01:06:41;;;;;;;3.90;3.53;;;;;;;;;;5053589;28;20940;-68
2022/12/31 01:09:08;;;;;;;3.80;3.53;;;;;;;;;;5053763;28;20461;-68
2022/12/31 01:11:36;;;;;;;3.70;3.40;;;;;;;;;;5053851;28;20476;-68
2022/12/31 01:14:05;;;;;;;3.83;3.43;;;;;;;;;;5053853;28;20442;-68
2022/12/31 01:16:34;;;;;;;3.47;3.17;;;;;;;;;;5053940;28;20453;-68
2022/12/31 01:19:02;;;;;;;3.90;3.60;;;;;;;;;;5053503;28;20931;-68
2022/12/31 01:21:29;;;;;;;3.83;2.90;;;;;;;;;;5053222;28;20480;-68
2022/12/31 01:23:56;;;;;;;3.57;3.27;;;;;;;;;;5054153;28;20439;-68
2022/12/31 01:26:24;;;;;;;3.30;3.00;;;;;;;;;;5053793;28;20454;-68
2022/12/31 01:28:51;;;;;;;3.70;3.30;;;;;;;;;;5053676;28;20440;-68
2022/12/31 01:31:21;;;;;;;4.67;4.20;;;;;;;;;;5053698;28;20438;-68
2022/12/31 01:33:48;;;;;;;4.27;3.97;;;;;;;;;;5053517;28;20441;-68
2022/12/31 01:36:16;;;;;;;3.43;3.13;;;;;;;;;;5053139;28;20453;-68
2022/12/31 01:38:43;;;;;;;3.40;3.10;;;;;;;;;;5053360;28;20549;-68
2022/12/31 01:41:12;;;;;;;5.07;3.87;;;;;;;;;;5053457;28;20476;-68
2022/12/31 01:43:47;;;;;;;3.20;2.90;;;;;;;;;;5053104;28;20460;-68
2022/12/31 01:46:18;;;;;;;4.23;3.23;;;;;;;;;;5053125;28;20776;-68
2022/12/31 01:48:48;;;;;;;3.70;3.40;;;;;;;;;;5053088;28;20925;-68
2022/12/31 01:51:15;;;;;;;5.17;3.43;;;;;;;;;;5053703;28;20429;-69
2022/12/31 01:53:43;;;;;;;3.67;3.40;;;;;;;;;;5052928;28;20533;-68
2022/12/31 01:56:11;;;;;;;3.90;3.60;;;;;;;;;;5052878;28;20452;-68
2022/12/31 01:58:40;;;;;;;4.27;3.87;;;;;;;;;;5053091;28;20439;-68
2022/12/31 02:01:08;;;;;;;4.43;3.67;;;;;;;;;;5052635;28;20448;-69
2022/12/31 02:03:35;;;;;;;4.40;4.00;;;;;;;;;;5053131;28;20454;-68
2022/12/31 02:06:07;;;;;;;4.30;3.97;;;;;;;;;;5052790;28;20889;-68
2022/12/31 02:08:35;;;;;;;4.77;4.37;;;;;;;;;;5053730;28;20433;-68
2022/12/31 02:11:03;;;;;;;6.70;4.70;;;;;;;;;;5052013;28;20475;-68
2022/12/31 02:13:30;;;;;;;5.47;4.97;;;;;;;;;;5052967;28;20438;-68
2022/12/31 02:16:02;;;;;;;5.10;4.70;;;;;;;;;;5053219;28;20449;-68
2022/12/31 02:18:31;;;;;;;6.53;5.43;;;;;;;;;;5053112;28;20442;-68
2022/12/31 02:21:16;;;;;;;14.53;6.10;;;;;;;;;;5052454;28;20777;-68
2022/12/31 02:23:58;;;;;;;10.47;5.20;;;;;;;;;;5052593;28;20956;-68
2022/12/31 02:26:38;;;;;;;6.30;5.70;;;;;;;;;;5050412;28;20464;-69
2022/12/31 02:29:17;;;;;;;5.33;4.83;;;;;;;;;;5052637;28;20446;-69
2022/12/31 02:31:50;;;;;;;5.60;5.10;;;;;;;;;;5053252;28;20523;-69
2022/12/31 02:34:19;;;;;;;5.17;4.53;;;;;;;;;;5053238;28;20439;-68
2022/12/31 02:36:47;;;;;;;4.40;4.00;;;;;;;;;;5052628;28;20449;-68
2022/12/31 02:39:15;;;;;;;3.87;3.50;;;;;;;;;;5053276;28;20791;-68
2022/12/31 02:41:51;;;;;;;4.03;3.30;;;;;;;;;;5052489;28;20482;-69
2022/12/31 02:44:23;;;;;;;3.40;3.10;;;;;;;;;;5052839;28;20424;-69
2022/12/31 02:46:55;;;;;;;3.47;3.17;;;;;;;;;;5052241;28;20493;-69
2022/12/31 02:49:24;;;;;;;3.50;3.20;;;;;;;;;;5053283;28;20534;-69
2022/12/31 02:51:55;;;;;;;3.80;3.47;;;;;;;;;;5052594;28;20455;-70
2022/12/31 02:54:29;;;;;;;5.40;3.60;;;;;;;;;;5052781;28;20523;-69
2022/12/31 02:57:03;;;;;;;3.43;3.17;;;;;;;;;;5052611;28;20433;-70
2022/12/31 03:02:20;;;;;;;3.40;3.03;;;;;;;;;;5052443;28;20884;-69
2022/12/31 03:04:49;;;;;;;3.30;3.00;;;;;;;;;;5052494;28;20444;-69
2022/12/31 03:07:19;;;;;;;3.60;3.30;;;;;;;;;;5052063;28;20454;-69
2022/12/31 03:09:47;;;;;;;3.80;3.20;;;;;;;;;;5052404;28;20443;-70
2022/12/31 03:15:00;;;;;;;3.63;2.87;;;;;;;;;;5052384;28;20411;-70
2022/12/31 03:17:28;;;;;;;3.40;3.10;;;;;;;;;;5051993;28;20446;-70
2022/12/31 03:22:42;;;;;;;3.03;2.83;;;;;;;;;;5055595;28;20526;-70
2022/12/31 03:27:55;;;;;;;4.90;3.07;;;;;;;;;;5055777;28;20419;-70
2022/12/31 03:30:23;;;;;;;2.30;2.10;;;;;;;;;;5055889;28;20532;-71
2022/12/31 03:32:52;;;;;;;3.40;1.60;;;;;;;;;;5055521;28;20459;-71
2022/12/31 03:35:20;;;;;;;1.40;1.30;;;;;;;;;;5055761;28;20455;-71
2022/12/31 03:37:48;;;;;;;1.10;1.00;;;;;;;;;;5056134;28;20457;-72
2022/12/31 03:40:16;;;;;;;1.17;1.07;;;;;;;;;;5055637;28;20818;-71
2022/12/31 03:42:43;;;;;;;1.10;1.00;;;;;;;;;;5055723;28;20473;-72
2022/12/31 03:45:11;;;;;;;1.03;1.00;;;;;;;;;;5055919;28;20461;-72
2022/12/31 03:47:39;;;;;;;1.20;1.00;;;;;;;;;;5055208;28;20953;-72
2022/12/31 03:50:08;;;;;;;1.30;1.13;;;;;;;;;;5055346;28;20454;-72
2022/12/31 03:52:35;;;;;;;0.80;0.80;;;;;;;;;;5055554;28;20444;-72
2022/12/31 03:55:03;;;;;;;1.13;1.03;;;;;;;;;;5055210;28;20450;-72
2022/12/31 03:57:30;;;;;;;1.03;1.03;;;;;;;;;;5055446;28;20487;-72
2022/12/31 03:59:57;;;;;;;3.50;1.47;;;;;;;;;;5055101;28;20442;-72
2022/12/31 04:02:25;;;;;;;1.00;1.00;;;;;;;;;;5055283;28;20968;-72
2022/12/31 04:04:52;;;;;;;1.23;1.00;;;;;;;;;;5055360;28;20470;-73
2022/12/31 04:07:21;;;;;;;1.23;1.13;;;;;;;;;;5055191;28;20455;-72
2022/12/31 04:09:48;;;;;;;1.87;1.50;;;;;;;;;;5054869;28;20455;-72
2022/12/31 04:12:15;;;;;;;1.07;1.00;;;;;;;;;;5054927;28;20444;-72
2022/12/31 04:14:42;;;;;;;1.20;1.10;;;;;;;;;;5054722;28;20967;-72
2022/12/31 04:17:09;;;;;;;1.80;1.13;;;;;;;;;;5055134;28;20750;-71
2022/12/31 04:19:37;;;;;;;1.80;1.50;;;;;;;;;;5054827;28;20476;-72
2022/12/31 04:22:04;;;;;;;1.30;1.20;;;;;;;;;;5054918;28;20451;-72
2022/12/31 04:24:33;;;;;;;1.40;1.30;;;;;;;;;;5038071;28;20449;-72
2022/12/31 04:27:00;;;;;;;1.87;1.77;;;;;;;;;;5034587;28;20508;-72
2022/12/31 04:29:28;;;;;;;3.63;1.40;;;;;;;;;;5034809;28;20798;-72
2022/12/31 04:31:55;;;;;;;1.70;1.60;;;;;;;;;;5034387;28;20450;-72
2022/12/31 04:34:22;;;;;;;1.93;1.57;;;;;;;;;;5033760;28;20464;-72
2022/12/31 04:36:49;;;;;;;1.80;1.70;;;;;;;;;;5034805;28;20452;-72
2022/12/31 04:39:16;;;;;;;4.07;1.70;;;;;;;;;;5034507;28;20454;-72
2022/12/31 04:41:45;;;;;;;2.60;1.60;;;;;;;;;;5034487;28;20455;-72
2022/12/31 04:44:12;;;;;;;2.13;1.80;;;;;;;;;;5034465;28;20839;-72
2022/12/31 04:46:39;;;;;;;1.77;1.60;;;;;;;;;;5034313;28;20535;-72
2022/12/31 04:49:06;;;;;;;2.40;1.70;;;;;;;;;;5034456;28;20948;-72
2022/12/31 04:51:34;;;;;;;1.93;1.80;;;;;;;;;;5034540;28;20885;-73
2022/12/31 04:54:01;;;;;;;2.70;2.50;;;;;;;;;;5034276;28;20449;-72
2022/12/31 04:56:29;;;;;;;2.27;2.00;;;;;;;;;;5034701;28;20536;-72
2022/12/31 04:58:57;;;;;;;2.00;1.90;;;;;;;;;;5034287;28;20487;-72
2022/12/31 05:01:25;;;;;;;1.97;1.87;;;;;;;;;;5033797;28;20442;-72
2022/12/31 05:03:52;;;;;;;2.07;1.87;;;;;;;;;;5034101;28;20501;-72
2022/12/31 05:06:21;;;;;;;4.53;2.30;;;;;;;;;;5034280;28;20453;-72
2022/12/31 05:08:48;;;;;;;2.80;2.60;;;;;;;;;;5033944;28;20805;-72
2022/12/31 05:11:16;;;;;;;2.50;2.30;;;;;;;;;;5033574;28;20481;-72
2022/12/31 05:13:43;;;;;;;3.17;2.50;;;;;;;;;;5033923;28;20848;-72
2022/12/31 05:16:12;;;;;;;3.00;2.70;;;;;;;;;;5034045;28;20448;-72
2022/12/31 05:18:39;;;;;;;2.93;2.73;;;;;;;;;;5033772;28;20457;-72
2022/12/31 05:21:06;;;;;;;2.80;2.60;;;;;;;;;;5034009;28;20476;-72
2022/12/31 05:23:34;;;;;;;3.57;3.27;;;;;;;;;;5033592;28;20507;-72
2022/12/31 05:26:01;;;;;;;3.70;3.40;;;;;;;;;;5033785;28;20449;-72
2022/12/31 05:28:28;;;;;;;4.73;4.20;;;;;;;;;;5033413;28;21048;-72
2022/12/31 05:30:55;;;;;;;4.63;4.23;;;;;;;;;;5033412;28;20934;-72
2022/12/31 05:33:24;;;;;;;4.80;4.40;;;;;;;;;;5033253;28;21292;-72
2022/12/31 05:35:51;;;;;;;5.87;4.77;;;;;;;;;;5033479;28;20443;-72
2022/12/31 05:38:18;;;;;;;5.53;5.03;;;;;;;;;;5033833;28;20449;-72
2022/12/31 05:40:46;;;;;;;5.43;4.63;;;;;;;;;;5033034;28;20467;-71
2022/12/31 05:43:13;;;;;;;7.03;4.77;;;;;;;;;;5033342;28;20908;-72
2022/12/31 05:45:40;;;;;;;6.87;5.10;;;;;;;;;;5033477;28;20446;-72
2022/12/31 05:48:07;;;;;;;5.00;4.17;;;;;;;;;;5033404;28;20449;-72
2022/12/31 05:50:36;;;;;;;5.03;4.17;;;;;;;;;;5033062;28;20471;-72
2022/12/31 05:53:03;;;;;;;4.37;3.97;;;;;;;;;;5033071;28;20960;-71
2022/12/31 05:55:30;;;;;;;4.37;3.93;;;;;;;;;;5033153;28;20444;-71
2022/12/31 05:57:57;;;;;;;7.13;3.60;;;;;;;;;;5033031;28;20448;-71
2022/12/31 06:00:24;;;;;;;2.73;2.50;;;;;;;;;;5032827;28;20452;-70
2022/12/31 06:02:51;;;;;;;3.30;3.00;;;;;;;;;;5032800;28;20480;-71
2022/12/31 06:05:19;;;;;;;4.00;2.73;;;;;;;;;;5032652;28;20446;-71
2022/12/31 06:07:48;;;;;;;4.27;2.60;;;;;;;;;;5033561;28;20455;-71
2022/12/31 06:10:15;;;;;;;3.00;2.80;;;;;;;;;;5032404;28;20485;-71
2022/12/31 06:12:42;;;;;;;2.20;2.10;;;;;;;;;;5032816;28;20441;-70
2022/12/31 06:15:10;;;;;;;3.50;2.10;;;;;;;;;;5032985;28;20534;-70
2022/12/31 06:17:37;;;;;;;2.27;1.80;;;;;;;;;;5032995;28;20453;-71
2022/12/31 06:20:05;;;;;;;5.70;2.23;;;;;;;;;;5032984;28;20437;-70
2022/12/31 06:22:32;;;;;;;2.37;2.17;;;;;;;;;;5032861;28;20444;-70
2022/12/31 06:25:01;;;;;;;2.50;1.73;;;;;;;;;;5032708;28;20455;-69
2022/12/31 06:27:28;;;;;;;3.27;2.00;;;;;;;;;;5032566;28;20916;-69
2022/12/31 06:29:55;;;;;;;2.77;2.57;;;;;;;;;;5033191;28;20805;-70
2022/12/31 06:32:22;;;;;;;2.60;2.40;;;;;;;;;;5033320;28;20449;-70
2022/12/31 06:34:49;;;;;;;5.33;2.43;;;;;;;;;;5032671;28;20451;-70
2022/12/31 06:37:17;;;;;;;3.00;2.80;;;;;;;;;;5032967;28;20993;-70
2022/12/31 06:39:44;;;;;;;5.37;2.50;;;;;;;;;;5032869;28;20456;-71
2022/12/31 06:42:13;;;;;;;5.30;2.97;;;;;;;;;;5033033;28;20470;-70
2022/12/31 06:44:40;;;;;;;2.67;2.43;;;;;;;;;;5033014;28;20484;-70
2022/12/31 06:47:07;;;;;;;2.67;2.47;;;;;;;;;;5032458;28;20456;-70
2022/12/31 06:49:34;;;;;;;4.10;1.90;;;;;;;;;;5032409;28;20450;-71
2022/12/31 06:52:01;;;;;;;3.77;2.60;;;;;;;;;;5032431;28;20451;-71
2022/12/31 06:54:28;;;;;;;3.10;2.90;;;;;;;;;;5033134;28;20792;-72
2022/12/31 06:56:56;;;;;;;3.40;2.30;;;;;;;;;;5035364;28;20447;-71
2022/12/31 06:59:26;;;;;;;3.80;2.47;;;;;;;;;;5036185;28;20451;-71
2022/12/31 07:02:18;;;;;;;6.43;2.40;;;;;;;;;;5047567;28;20448;-71
2022/12/31 07:04:50;;;;;;;6.27;2.53;;;;;;;;;;5036611;28;20907;-72
2022/12/31 07:07:21;;;;;;;2.70;2.23;;;;;;;;;;5056556;28;20442;-72
2022/12/31 07:09:53;;;;;;;2.73;2.30;;;;;;;;;;5056517;28;20452;-72
2022/12/31 07:12:24;;;;;;;4.30;2.00;;;;;;;;;;5056376;28;20428;-71
2022/12/31 07:14:55;;;;;;;4.87;2.10;;;;;;;;;;5055939;28;20436;-72
2022/12/31 07:17:26;;;;;;;3.03;2.17;;;;;;;;;;5056972;28;20519;-71
2022/12/31 07:19:58;;;;;;;2.83;2.00;;;;;;;;;;5056448;28;20483;-70
2022/12/31 07:22:25;;;;;;;1.97;1.87;;;;;;;;;;5056469;28;20767;-70
2022/12/31 07:24:53;;;;;;;4.23;2.17;;;;;;;;;;5055576;28;20489;-71
2022/12/31 07:27:30;;;;;;;4.23;2.40;;;;;;;;;;5055736;28;20441;-71
2022/12/31 07:30:02;;;;;;;3.90;2.37;;;;;;;;;;5056443;28;20434;-71
2022/12/31 07:32:36;;;;;;;3.20;1.97;;;;;;;;;;5056081;28;20434;-71
2022/12/31 07:35:09;;;;;;;4.50;1.90;;;;;;;;;;5047619;28;20438;-71
2022/12/31 07:37:41;;;;;;;2.70;2.13;;;;;;;;;;5036026;28;20487;-70
2022/12/31 07:40:13;;;;;;;2.23;1.90;;;;;;;;;;5035435;28;20453;-71
2022/12/31 07:42:45;;;;;;;3.93;1.53;;;;;;;;;;5035916;28;20437;-70
2022/12/31 07:45:18;;;;;;;6.57;3.60;;;;;;;;;;5035852;28;20469;-70
2022/12/31 07:47:45;;;;;;;2.17;1.97;;;;;;;;;;5035703;28;20459;-70
2022/12/31 07:50:15;;;;;;;6.10;2.00;;;;;;;;;;5035706;28;20532;-71
2022/12/31 07:52:42;;;;;;;3.20;1.60;;;;;;;;;;5035521;28;20458;-70
2022/12/31 07:55:10;;;;;;;2.53;1.50;;;;;;;;;;5035472;28;20456;-70
2022/12/31 07:57:41;;;;;;;1.80;1.70;;;;;;;;;;5035493;28;20453;-70
2022/12/31 08:00:09;;;;;;;1.77;1.63;;;;;;;;;;5035696;28;20437;-69
2022/12/31 08:02:52;;;;;;;3.63;1.90;;;;;;;;;;5035165;28;20449;-70
2022/12/31 08:05:22;;;;;;;4.80;1.40;;;;;;;;;;5035099;28;20467;-69
2022/12/31 08:07:52;;;;;;;1.70;1.30;;;;;;;;;;5034002;28;20808;-69
2022/12/31 08:10:24;;;;;;;1.57;1.47;;;;;;;;;;5034931;28;20916;-69
2022/12/31 08:12:53;;;;;;;4.90;1.83;;;;;;;;;;5034924;28;20422;-69
2022/12/31 08:15:20;;;;;;;4.20;1.67;;;;;;;;;;5035299;28;20445;-69
2022/12/31 08:17:49;;;;;;;2.83;1.70;;;;;;;;;;5035092;28;20443;-69
2022/12/31 08:20:17;;;;;;;3.23;1.57;;;;;;;;;;5035011;28;20452;-68
2022/12/31 08:23:05;;;;;;;2.57;1.40;;;;;;;;;;5034823;28;20449;-68
2022/12/31 08:25:36;;;;;;;3.03;1.77;;;;;;;;;;5034701;28;20427;-68
2022/12/31 08:28:07;;;;;;;1.30;1.20;;;;;;;;;;5034916;28;20444;-68
2022/12/31 08:30:38;;;;;;;2.20;1.30;;;;;;;;;;5034930;28;20423;-68
2022/12/31 08:33:11;;;;;;;3.20;1.67;;;;;;;;;;5034384;28;20458;-68
2022/12/31 08:35:43;;;;;;;1.93;1.83;;;;;;;;;;5035128;28;20507;-68
2022/12/31 08:38:16;;;;;;;1.60;1.43;;;;;;;;;;5034755;28;20440;-67
2022/12/31 08:40:48;;;;;;;2.10;1.63;;;;;;;;;;5034714;28;20468;-68
2022/12/31 08:43:23;;;;;;;3.43;1.83;;;;;;;;;;5034327;28;20446;-67
2022/12/31 08:45:51;;;;;;;3.67;1.57;;;;;;;;;;5034746;28;20536;-67
2022/12/31 08:48:26;;;;;;;3.20;1.53;;;;;;;;;;5034502;28;20507;-68
2022/12/31 08:50:53;;;;;;;3.10;2.17;;;;;;;;;;5034405;28;20440;-65
2022/12/31 08:53:21;;;;;;;4.30;1.40;;;;;;;;;;5034301;28;20926;-66
2022/12/31 08:55:50;;;;;;;2.10;1.40;;;;;;;;;;5034338;28;20547;-66
2022/12/31 08:58:28;;;;;;;4.00;1.53;;;;;;;;;;5034163;28;20427;-66
2022/12/31 09:00:58;;;;;;;1.40;1.30;;;;;;;;;;5034481;28;20758;-72
2022/12/31 09:03:40;;;;;;;5.67;1.80;;;;;;;;;;5033972;28;20489;-67
2022/12/31 09:06:13;;;;;;;1.33;1.23;;;;;;;;;;5034166;28;20446;-68
2022/12/31 09:08:44;;;;;;;2.40;1.50;;;;;;;;;;5034022;28;20442;-67
2022/12/31 09:11:13;;;;;;;2.13;1.50;;;;;;;;;;5034160;28;20480;-68
2022/12/31 09:13:46;;;;;;;3.00;1.50;;;;;;;;;;5032380;28;20446;-67
2022/12/31 09:16:17;;;;;;;4.20;1.40;;;;;;;;;;5034043;28;20463;-67
2022/12/31 09:18:46;;;;;;;2.03;1.47;;;;;;;;;;5033543;28;20435;-67
2022/12/31 09:21:15;;;;;;;2.10;1.70;;;;;;;;;;5033324;28;20931;-67
2022/12/31 09:23:42;;;;;;;2.57;1.50;;;;;;;;;;5033870;28;20433;-67
2022/12/31 09:26:15;;;;;;;2.13;1.37;;;;;;;;;;5033334;28;20547;-67
2022/12/31 09:28:47;;;;;;;4.23;1.53;;;;;;;;;;5033301;28;20429;-67
2022/12/31 09:31:17;;;;;;;1.80;1.43;;;;;;;;;;5033510;28;20432;-67
2022/12/31 09:33:50;;;;;;;3.10;1.53;;;;;;;;;;5033412;28;20455;-67
2022/12/31 09:36:19;;;;;;;1.97;1.43;;;;;;;;;;5033829;28;20440;-67
2022/12/31 09:38:51;;;;;;;2.20;1.20;;;;;;;;;;5033044;28;20448;-67
2022/12/31 09:41:29;;;;;;;2.17;1.37;;;;;;;;;;5033414;28;20437;-67
2022/12/31 09:44:11;;;;;;;1.37;1.27;;;;;;;;;;5033065;28;20465;-66
2022/12/31 09:46:57;;;;;;;1.30;1.20;;;;;;;;;;5033210;28;20429;-67
2022/12/31 09:49:38;;;;;;;2.50;1.70;;;;;;;;;;5032610;28;20449;-68
2022/12/31 09:52:09;;;;;;;2.00;1.47;;;;;;;;;;5031561;28;20793;-67
2022/12/31 09:54:45;;;;;;;2.53;1.67;;;;;;;;;;5032872;28;20558;-67
2022/12/31 09:57:21;;;;;;;2.60;1.53;;;;;;;;;;5032667;28;20919;-67
2022/12/31 09:59:52;;;;;;;1.77;1.23;;;;;;;;;;5032912;28;20436;-67
2022/12/31 10:02:23;;;;;;;1.93;1.40;;;;;;;;;;5033177;28;20438;-67
2022/12/31 10:05:00;;;;;;;2.13;1.53;;;;;;;;;;5033289;28;20466;-68
2022/12/31 10:07:35;;;;;;;2.70;1.40;;;;;;;;;;5032744;28;20516;-68
2022/12/31 10:10:13;;;;;;;2.60;1.27;;;;;;;;;;5032847;28;20939;-68
2022/12/31 10:12:46;;;;;;;2.07;1.53;;;;;;;;;;5033171;28;20539;-68
2022/12/31 10:15:28;;;;;;;2.43;1.50;;;;;;;;;;5033133;28;20465;-68
2022/12/31 10:18:00;;;;;;;2.70;1.63;;;;;;;;;;5032992;28;20435;-68
2022/12/31 10:20:35;;;;;;;4.10;2.27;;;;;;;;;;5032669;28;20449;-68
2022/12/31 10:23:08;;;;;;;5.20;1.60;;;;;;;;;;5032956;28;20434;-68
2022/12/31 10:25:43;;;;;;;3.13;1.70;;;;;;;;;;5032442;28;20474;-68
2022/12/31 10:28:18;;;;;;;6.73;1.60;;;;;;;;;;5032535;28;20439;-68
2022/12/31 10:30:49;;;;;;;3.10;1.60;;;;;;;;;;5032235;28;20773;-68
2022/12/31 10:33:17;;;;;;;7.00;1.97;;;;;;;;;;5032680;28;20528;-68
2022/12/31 10:35:50;;;;;;;3.60;1.50;;;;;;;;;;5032779;28;20450;-68
2022/12/31 10:38:27;;;;;;;4.80;1.80;;;;;;;;;;5032604;28;20434;-68
2022/12/31 10:41:11;;;;;;;3.73;2.00;;;;;;;;;;5033087;28;20447;-68
2022/12/31 10:43:51;;;;;;;3.27;1.87;;;;;;;;;;5032262;28;20964;-68
2022/12/31 10:46:28;;;;;;;5.40;2.27;;;;;;;;;;5032288;28;20425;-69
2022/12/31 10:49:13;;;;;;;3.70;1.70;;;;;;;;;;5032347;28;20514;-68
2022/12/31 10:51:54;;;;;;;2.00;1.70;;;;;;;;;;5032275;28;20437;-68
2022/12/31 10:54:36;;;;;;;6.90;2.70;;;;;;;;;;5032124;28;20452;-68
2022/12/31 10:57:27;;;;;;;2.17;1.97;;;;;;;;;;5032770;28;20434;-69
2022/12/31 11:00:02;;;;;;;3.83;2.77;;;;;;;;;;5032249;28;20428;-68
2022/12/31 11:02:43;;;;;;;2.67;2.20;;;;;;;;;;5032643;28;20810;-69
2022/12/31 11:05:27;;;;;;;5.23;2.00;;;;;;;;;;5032354;28;20472;-68
2022/12/31 11:08:03;;;;;;;4.20;1.90;;;;;;;;;;5032525;28;20869;-69
2022/12/31 11:10:45;;;;;;;3.57;1.73;;;;;;;;;;5032117;28;20983;-69
2022/12/31 11:13:30;;;;;;;4.90;1.90;;;;;;;;;;5024075;28;20979;-68
2022/12/31 11:16:08;;;;;;;2.50;1.63;;;;;;;;;;5032105;28;20489;-68
2022/12/31 11:18:40;;;;;;;4.00;1.97;;;;;;;;;;5032292;28;20433;-68
2022/12/31 11:21:20;;;;;;;2.13;1.80;;;;;;;;;;5032913;28;20757;-69
2022/12/31 11:23:55;;;;;;;2.90;1.80;;;;;;;;;;5032899;28;20787;-68
2022/12/31 11:26:27;;;;;;;2.90;1.87;;;;;;;;;;5032497;28;20465;-68
2022/12/31 11:29:02;;;;;;;3.27;1.70;;;;;;;;;;5032732;28;20441;-68
2022/12/31 11:31:43;;;;;;;4.27;1.70;;;;;;;;;;5032740;28;20432;-68
2022/12/31 11:34:29;;;;;;;5.43;1.60;;;;;;;;;;5032150;28;20433;-68
2022/12/31 11:37:05;;;;;;;3.80;2.13;;;;;;;;;;5032001;28;20447;-68
2022/12/31 11:39:40;;;;;;;5.47;1.90;;;;;;;;;;5031899;28;20452;-68
2022/12/31 11:42:16;;;;;;;5.00;2.17;;;;;;;;;;5033549;28;20453;-68
2022/12/31 11:44:47;;;;;;;4.17;1.83;;;;;;;;;;5035961;28;20470;-68
2022/12/31 11:47:21;;;;;;;2.70;1.80;;;;;;;;;;5035945;28;20791;-68
2022/12/31 11:49:56;;;;;;;6.47;1.87;;;;;;;;;;5035809;28;20434;-68
2022/12/31 11:52:44;;;;;;;3.87;2.83;;;;;;;;;;5035456;28;20437;-68
2022/12/31 11:55:24;;;;;;;2.07;1.77;;;;;;;;;;5018309;28;20465;-68
2022/12/31 11:57:52;;;;;;;5.47;1.80;;;;;;;;;;5035286;28;20441;-68
2022/12/31 12:00:21;;;;;;;2.80;1.97;;;;;;;;;;5035436;28;20442;-67
2022/12/31 12:02:49;;;;;;;4.20;2.37;;;;;;;;;;5035069;28;20538;-67
2022/12/31 12:05:19;;;;;;;3.40;2.33;;;;;;;;;;5035315;28;20565;-67
2022/12/31 12:07:46;;;;;;;3.60;1.90;;;;;;;;;;5035458;28;20871;-67
2022/12/31 12:10:19;;;;;;;6.80;2.13;;;;;;;;;;5034496;28;20477;-67
2022/12/31 12:12:47;;;;;;;6.10;1.87;;;;;;;;;;5034955;28;20445;-67
2022/12/31 12:15:19;;;;;;;2.63;2.03;;;;;;;;;;5034910;28;20429;-67
2022/12/31 12:17:50;;;;;;;4.17;1.60;;;;;;;;;;5035244;28;20713;-67
2022/12/31 12:20:19;;;;;;;7.80;4.13;;;;;;;;;;5034754;28;20441;-67
2022/12/31 12:22:50;;;;;;;2.43;1.83;;;;;;;;;;5034937;28;20446;-67
2022/12/31 12:25:18;;;;;;;4.30;1.97;;;;;;;;;;5034907;28;20995;-67
2022/12/31 12:27:45;;;;;;;2.57;2.13;;;;;;;;;;5034898;28;20449;-67
2022/12/31 12:30:18;;;;;;;3.50;1.77;;;;;;;;;;5034739;28;20794;-66
2022/12/31 12:32:52;;;;;;;6.27;1.90;;;;;;;;;;5035497;28;20436;-67
2022/12/31 12:35:24;;;;;;;4.07;1.60;;;;;;;;;;5035195;28;20440;-67
2022/12/31 12:37:58;;;;;;;2.50;1.30;;;;;;;;;;5035467;28;20441;-67
2022/12/31 12:40:26;;;;;;;6.03;2.37;;;;;;;;;;5032143;28;20471;-68
2022/12/31 12:42:54;;;;;;;3.67;1.90;;;;;;;;;;5033683;28;20993;-67
2022/12/31 12:45:24;;;;;;;4.80;1.60;;;;;;;;;;5034193;28;20657;-67
2022/12/31 12:47:56;;;;;;;3.57;1.50;;;;;;;;;;5034357;28;20923;-67
2022/12/31 12:50:25;;;;;;;3.30;1.60;;;;;;;;;;5033558;28;20430;-67
2022/12/31 12:53:06;;;;;;;5.30;1.97;;;;;;;;;;5034300;28;20452;-67
2022/12/31 12:55:40;;;;;;;2.90;2.13;;;;;;;;;;5033983;28;20919;-67
2022/12/31 12:58:13;;;;;;;2.10;1.60;;;;;;;;;;5034419;28;20426;-67
2022/12/31 13:00:47;;;;;;;3.20;1.70;;;;;;;;;;5033850;28;20437;-67
2022/12/31 13:03:26;;;;;;;5.80;1.57;;;;;;;;;;5034363;28;20921;-67
2022/12/31 13:05:58;;;;;;;2.87;1.70;;;;;;;;;;5033753;28;20476;-67
2022/12/31 13:08:31;;;;;;;2.93;1.73;;;;;;;;;;5033851;28;20433;-67
2022/12/31 13:11:05;;;;;;;4.77;1.87;;;;;;;;;;5033624;28;20475;-67
2022/12/31 13:13:37;;;;;;;4.77;1.90;;;;;;;;;;5034243;28;20434;-67
2022/12/31 13:16:10;;;;;;;4.93;2.90;;;;;;;;;;5033574;28;20433;-67
2022/12/31 13:18:42;;;;;;;5.43;1.70;;;;;;;;;;5033604;28;20796;-67
2022/12/31 13:21:19;;;;;;;5.00;1.80;;;;;;;;;;5033952;28;20429;-67
2022/12/31 13:23:49;;;;;;;7.00;2.37;;;;;;;;;;5033788;28;20509;-67
2022/12/31 13:26:20;;;;;;;3.70;2.27;;;;;;;;;;5033529;28;20844;-67
2022/12/31 13:28:49;;;;;;;2.40;1.70;;;;;;;;;;5033638;28;20433;-67
2022/12/31 13:31:19;;;;;;;5.53;2.23;;;;;;;;;;5033106;28;20441;-67
2022/12/31 13:33:48;;;;;;;2.93;1.70;;;;;;;;;;5033793;28;20446;-67
2022/12/31 13:36:17;;;;;;;3.17;2.13;;;;;;;;;;5033407;28;20887;-67
2022/12/31 13:38:46;;;;;;;4.30;1.80;;;;;;;;;;5033985;28;20443;-67
2022/12/31 13:41:15;;;;;;;3.07;2.00;;;;;;;;;;5033324;28;20936;-67
2022/12/31 13:43:46;;;;;;;3.37;1.80;;;;;;;;;;5033673;28;20898;-67
2022/12/31 13:46:18;;;;;;;4.27;1.90;;;;;;;;;;5033341;28;20476;-68
2022/12/31 13:48:51;;;;;;;2.50;1.53;;;;;;;;;;5033263;28;20941;-67
2022/12/31 13:51:23;;;;;;;6.57;2.30;;;;;;;;;;5033018;28;20433;-67
2022/12/31 13:53:55;;;;;;;1.90;1.80;;;;;;;;;;5033399;28;20579;-67
2022/12/31 13:56:25;;;;;;;5.90;2.10;;;;;;;;;;5033186;28;20452;-67
2022/12/31 13:58:55;;;;;;;3.13;2.50;;;;;;;;;;5033747;28;20444;-68
2022/12/31 14:01:26;;;;;;;4.03;2.27;;;;;;;;;;5032896;28;20476;-67
2022/12/31 14:03:59;;;;;;;6.20;1.97;;;;;;;;;;5032786;28;20915;-67
2022/12/31 14:06:29;;;;;;;4.37;2.57;;;;;;;;;;5031762;28;20477;-68
2022/12/31 14:08:57;;;;;;;3.77;2.43;;;;;;;;;;5033292;28;20450;-67
2022/12/31 14:11:40;;;;;;;3.87;3.00;;;;;;;;;;5032651;28;20528;-68
2022/12/31 14:14:11;;;;;;;6.60;2.63;;;;;;;;;;5033116;28;20438;-67
2022/12/31 14:16:42;;;;;;;2.70;2.03;;;;;;;;;;5033297;28;20438;-67
2022/12/31 14:19:15;;;;;;;5.13;2.23;;;;;;;;;;5033274;28;20460;-67
2022/12/31 14:21:44;;;;;;;4.23;2.60;;;;;;;;;;5032558;28;20434;-68
2022/12/31 14:24:14;;;;;;;4.50;1.77;;;;;;;;;;5032416;28;20965;-68
2022/12/31 14:26:44;;;;;;;3.60;1.80;;;;;;;;;;5032376;28;20480;-68
2022/12/31 14:29:17;;;;;;;2.33;1.80;;;;;;;;;;5032910;28;20449;-68
2022/12/31 14:31:53;;;;;;;4.40;2.80;;;;;;;;;;5032866;28;20505;-67
2022/12/31 14:34:26;;;;;;;4.60;1.90;;;;;;;;;;5032774;28;20511;-67
2022/12/31 14:36:57;;;;;;;3.37;2.20;;;;;;;;;;5032945;28;20436;-67
2022/12/31 14:39:30;;;;;;;4.10;2.07;;;;;;;;;;5033003;28;20501;-67
2022/12/31 14:42:04;;;;;;;3.73;1.97;;;;;;;;;;5032582;28;20440;-67
2022/12/31 14:44:42;;;;;;;3.50;2.20;;;;;;;;;;5032455;28;20444;-67
2022/12/31 14:47:16;;;;;;;4.47;1.70;;;;;;;;;;5032404;28;20466;-67
2022/12/31 14:49:50;;;;;;;3.70;1.90;;;;;;;;;;5032829;28;20444;-67
2022/12/31 14:52:22;;;;;;;2.90;1.90;;;;;;;;;;5032443;28;20436;-68
2022/12/31 14:55:00;;;;;;;4.10;2.50;;;;;;;;;;5033034;28;20840;-67
2022/12/31 14:57:34;;;;;;;5.03;2.20;;;;;;;;;;5032725;28;20434;-68
2022/12/31 15:00:02;;;;;;;5.90;2.20;;;;;;;;;;5032604;28;20797;-67
2022/12/31 15:02:30;;;;;;;8.40;2.40;;;;;;;;;;5032299;28;20442;-68
2022/12/31 15:05:14;;;;;;;5.00;2.07;;;;;;;;;;5032191;28;20533;-67
2022/12/31 15:07:44;;;;;;;1.87;1.73;;;;;;;;;;5032754;28;20424;-67
2022/12/31 15:10:16;;;;;;;3.00;2.30;;;;;;;;;;5032603;28;20816;-68
2022/12/31 15:12:50;;;;;;;2.37;2.10;;;;;;;;;;5012886;28;20454;-67
2022/12/31 15:15:28;;;;;;;3.77;2.23;;;;;;;;;;5013119;28;20792;-68